Time;durP1;ratioP1;P1;durP2;ratioP2;P2;SDS_P1;SDS_P2;PMS_P1;PMS_P2;Temp;Humidity;BMP_temperature;BMP_pressure;BME280_temperature;BME280_humidity;BME280_pressure;Samples;Min_cycle;Max_cycle;Signal;HPM_P1;HPM_P2
2022/03/29 00:02:02;;;;;;;27.55;13.45;;;;;;;10.29;64.05;101418.97;3583372;40;20056;-64
2022/03/29 00:04:29;;;;;;;29.80;13.93;;;;;;;10.20;63.84;101408.66;3582165;40;20398;-63
2022/03/29 00:06:54;;;;;;;25.35;13.85;;;;;;;10.26;63.79;101434.34;3584310;40;20040;-64
2022/03/29 00:09:21;;;;;;;26.63;13.13;;;;;;;9.97;64.58;101391.88;3585463;40;20056;-63
2022/03/29 00:11:47;;;;;;;26.67;14.13;;;;;;;9.97;65.19;101391.88;3584670;40;20057;-62
2022/03/29 00:14:13;;;;;;;27.95;14.75;;;;;;;9.99;65.31;101406.13;3579478;40;20084;-63
2022/03/29 00:16:40;;;;;;;25.98;14.05;;;;;;;10.09;65.26;101424.47;3583987;40;20059;-63
2022/03/29 00:19:07;;;;;;;28.02;14.27;;;;;;;10.07;65.46;101429.91;3585449;40;20068;-62
2022/03/29 00:21:33;;;;;;;29.00;14.20;;;;;;;9.93;65.56;101402.88;3585113;40;20051;-62
2022/03/29 00:23:59;;;;;;;25.73;14.13;;;;;;;10.00;65.94;101418.59;3584791;40;20048;-62
2022/03/29 00:26:25;;;;;;;32.03;15.50;;;;;;;9.95;66.34;101417.94;3584020;40;20048;-63
2022/03/29 00:28:50;;;;;;;28.52;14.57;;;;;;;9.91;65.84;101404.75;3583228;40;20063;-63
2022/03/29 00:31:16;;;;;;;27.98;15.13;;;;;;;9.84;65.80;101389.91;3584817;40;20052;-63
2022/03/29 00:33:43;;;;;;;25.23;15.05;;;;;;;9.91;66.41;101410.13;3582029;40;20048;-63
2022/03/29 00:36:08;;;;;;;26.83;14.30;;;;;;;9.88;65.82;101408.44;3583146;40;20064;-63
2022/03/29 00:38:34;;;;;;;30.05;15.25;;;;;;;9.79;66.57;101391.94;3584326;40;20046;-63
2022/03/29 00:41:01;;;;;;;27.15;15.23;;;;;;;9.79;66.96;101395.47;3583575;40;20055;-63
2022/03/29 00:43:27;;;;;;;25.92;15.82;;;;;;;9.74;66.41;101393.03;3580399;40;20371;-63
2022/03/29 00:45:53;;;;;;;32.47;16.55;;;;;;;9.69;67.11;101381.66;3583633;40;20044;-63
2022/03/29 00:48:18;;;;;;;29.00;16.00;;;;;;;9.69;66.70;101376.28;3584473;40;20044;-62
2022/03/29 00:50:45;;;;;;;26.27;16.70;;;;;;;9.59;66.88;101368.75;3581581;40;20059;-63
2022/03/29 00:53:12;;;;;;;33.10;16.27;;;;;;;9.14;67.58;101303.00;3584775;40;20059;-63
2022/03/29 00:55:39;;;;;;;26.98;16.33;;;;;;;9.64;67.74;101378.34;3584462;40;20307;-63
2022/03/29 00:58:08;;;;;;;30.25;17.85;;;;;;;9.51;68.51;101355.69;3579658;40;20052;-63
2022/03/29 01:00:35;;;;;;;29.02;17.10;;;;;;;9.41;68.45;101336.50;3579761;40;20052;-63
2022/03/29 01:03:03;;;;;;;27.20;17.55;;;;;;;9.57;69.00;101373.31;3582386;40;20048;-63
2022/03/29 01:05:29;;;;;;;28.60;18.65;;;;;;;9.54;68.78;101367.16;3584571;40;20333;-63
2022/03/29 01:07:57;;;;;;;28.65;18.50;;;;;;;9.49;68.52;101354.94;3583918;40;20387;-63
2022/03/29 01:10:24;;;;;;;29.45;17.75;;;;;;;9.34;68.86;101329.69;3581158;40;20068;-63
2022/03/29 01:12:51;;;;;;;27.27;18.52;;;;;;;9.49;68.74;101353.09;3581870;40;20064;-65
2022/03/29 01:15:19;;;;;;;29.45;18.65;;;;;;;9.50;69.04;101370.94;3581295;40;20064;-62
2022/03/29 01:17:46;;;;;;;28.13;18.15;;;;;;;9.46;68.56;101352.41;3585081;40;20048;-62
2022/03/29 01:20:27;;;;;;;31.48;19.33;;;;;;;9.30;68.71;101331.66;3584742;40;20100;-63
2022/03/29 01:22:56;;;;;;;29.85;18.48;;;;;;;9.26;69.00;101334.56;3583907;40;20056;-63
2022/03/29 01:25:43;;;;;;;27.80;18.73;;;;;;;9.39;69.28;101348.28;3582945;40;20062;-63
2022/03/29 01:28:11;;;;;;;29.13;18.58;;;;;;;9.40;69.49;101355.38;3585795;40;20056;-62
2022/03/29 01:30:37;;;;;;;29.88;19.65;;;;;;;9.36;69.87;101348.44;3585094;40;20578;-63
2022/03/29 01:33:08;;;;;;;29.85;19.42;;;;;;;9.33;69.15;101356.63;3584192;40;20045;-63
2022/03/29 01:35:35;;;;;;;34.25;19.40;;;;;;;9.29;70.44;101355.88;3585329;40;20061;-61
2022/03/29 01:38:00;;;;;;;29.77;20.00;;;;;;;9.22;69.78;101341.88;3586454;40;20087;-61
2022/03/29 01:40:28;;;;;;;29.85;18.75;;;;;;;9.24;70.66;101352.56;3587626;40;20072;-62
2022/03/29 01:42:58;;;;;;;30.77;19.58;;;;;;;9.04;70.41;101319.50;3588358;40;20048;-63
2022/03/29 01:45:31;;;;;;;33.60;19.55;;;;;;;9.04;70.26;101324.00;3584297;40;20098;-64
2022/03/29 01:47:56;;;;;;;28.17;19.50;;;;;;;9.17;70.71;101340.38;3587080;40;20060;-62
2022/03/29 01:50:23;;;;;;;33.03;20.73;;;;;;;9.15;70.61;101334.22;3586298;40;20059;-63
2022/03/29 01:52:49;;;;;;;31.67;20.60;;;;;;;9.12;70.69;101337.91;3587389;40;20055;-63
2022/03/29 01:55:20;;;;;;;31.00;19.73;;;;;;;9.11;70.66;101340.69;3581413;40;20072;-63
2022/03/29 01:57:47;;;;;;;32.20;21.05;;;;;;;9.07;71.03;101324.72;3579841;40;20088;-63
2022/03/29 02:00:31;;;;;;;29.70;20.17;;;;;;;8.80;70.87;101283.13;3583129;40;20048;-62
2022/03/29 02:03:00;;;;;;;33.22;21.77;;;;;;;8.98;71.75;101314.44;3586546;40;20314;-63
2022/03/29 02:05:26;;;;;;;31.55;20.70;;;;;;;8.94;71.43;101323.53;3584485;40;20491;-62
2022/03/29 02:07:52;;;;;;;32.85;22.13;;;;;;;8.90;72.19;101305.88;3585904;40;20060;-63
2022/03/29 02:10:21;;;;;;;34.80;21.38;;;;;;;8.92;72.12;101313.88;3580159;40;20111;-63
2022/03/29 02:12:49;;;;;;;35.90;22.67;;;;;;;8.90;71.81;101310.38;3585428;40;20133;-63
2022/03/29 02:15:15;;;;;;;33.80;22.23;;;;;;;8.91;71.80;101312.09;3586238;40;20056;-63
2022/03/29 02:17:43;;;;;;;32.53;22.65;;;;;;;8.86;72.38;101306.97;3585963;40;20059;-63
2022/03/29 02:20:11;;;;;;;32.83;22.90;;;;;;;8.90;72.14;101300.50;3581947;40;20129;-63
2022/03/29 02:22:36;;;;;;;35.65;22.00;;;;;;;8.91;72.18;101302.28;3578377;40;20481;-63
2022/03/29 02:25:03;;;;;;;37.55;23.75;;;;;;;8.89;72.35;101293.44;3581438;40;20064;-63
2022/03/29 02:27:28;;;;;;;34.40;23.58;;;;;;;8.77;72.20;101273.41;3589282;40;20052;-63
2022/03/29 02:29:54;;;;;;;35.13;23.85;;;;;;;8.79;72.07;101276.03;3591089;40;20282;-61
2022/03/29 02:32:20;;;;;;;36.67;24.33;;;;;;;8.68;71.97;101251.53;3591668;40;20066;-62
2022/03/29 02:34:45;;;;;;;34.88;23.17;;;;;;;8.78;72.81;101269.78;3590109;40;20075;-63
2022/03/29 02:37:13;;;;;;;35.95;24.30;;;;;;;8.80;72.85;101272.41;3587750;40;20413;-63
2022/03/29 02:39:39;;;;;;;34.80;23.38;;;;;;;8.80;73.11;101277.78;3584267;40;20053;-64
2022/03/29 02:42:06;;;;;;;38.75;25.13;;;;;;;8.68;72.86;101259.56;3584058;40;20064;-63
2022/03/29 02:44:32;;;;;;;34.85;24.70;;;;;;;8.73;73.33;101270.97;3584682;40;20437;-65
2022/03/29 02:46:57;;;;;;;38.60;25.02;;;;;;;8.67;73.02;101256.03;3585971;40;20056;-68
2022/03/29 02:49:24;;;;;;;41.22;24.70;;;;;;;8.78;73.31;101271.59;3583240;40;20392;-66
2022/03/29 02:51:51;;;;;;;40.50;25.73;;;;;;;8.73;73.10;101263.78;3581583;40;20311;-66
2022/03/29 02:54:17;;;;;;;37.38;25.33;;;;;;;8.70;73.02;101253.22;3584704;40;20058;-65
2022/03/29 02:56:43;;;;;;;36.13;24.80;;;;;;;8.74;73.28;101260.16;3584403;40;20060;-65
2022/03/29 02:59:09;;;;;;;39.60;25.50;;;;;;;8.57;73.59;101228.81;3585460;40;20358;-66
2022/03/29 03:01:35;;;;;;;40.20;25.52;;;;;;;8.66;73.02;101237.34;3585885;40;20051;-64
2022/03/29 03:04:00;;;;;;;37.15;25.95;;;;;;;8.76;73.28;101252.06;3584998;40;20068;-64
2022/03/29 03:06:26;;;;;;;39.83;27.33;;;;;;;8.64;73.79;101229.38;3585032;40;20449;-64
2022/03/29 03:08:51;;;;;;;37.00;25.02;;;;;;;8.50;73.36;101213.06;3585521;40;20048;-65
2022/03/29 03:11:17;;;;;;;43.25;26.92;;;;;;;8.74;73.03;101246.75;3584548;40;20294;-65
2022/03/29 03:13:42;;;;;;;38.88;26.38;;;;;;;8.70;73.81;101236.28;3582345;40;20055;-65
2022/03/29 03:16:09;;;;;;;39.85;27.60;;;;;;;8.70;73.72;101247.00;3588027;40;20058;-65
2022/03/29 03:18:36;;;;;;;41.38;26.92;;;;;;;8.70;73.80;101238.94;3587910;40;20044;-65
2022/03/29 03:21:02;;;;;;;43.88;28.48;;;;;;;8.72;73.85;101234.38;3587409;40;20424;-64
2022/03/29 03:23:28;;;;;;;40.38;28.20;;;;;;;8.73;73.64;101228.09;3584340;40;20047;-65
2022/03/29 03:25:54;;;;;;;44.17;29.38;;;;;;;8.75;73.88;101232.44;3585437;40;20044;-64
2022/03/29 03:28:20;;;;;;;44.65;31.13;;;;;;;8.73;73.93;101215.53;3583897;40;20105;-66
2022/03/29 03:30:46;;;;;;;45.83;29.63;;;;;;;8.78;73.31;101220.66;3582344;40;20044;-65
2022/03/29 03:33:12;;;;;;;44.63;29.27;;;;;;;8.77;73.74;101224.31;3584445;40;20063;-64
2022/03/29 03:35:38;;;;;;;47.83;30.40;;;;;;;8.73;73.88;101228.94;3581341;40;20040;-65
2022/03/29 03:38:05;;;;;;;47.15;30.75;;;;;;;8.67;73.85;101214.97;3579179;40;20161;-64
2022/03/29 03:40:30;;;;;;;43.55;30.48;;;;;;;8.43;73.71;101177.66;3584064;40;20041;-65
2022/03/29 03:42:56;;;;;;;47.10;32.35;;;;;;;8.36;73.60;101165.47;3585181;40;20114;-68
2022/03/29 03:45:22;;;;;;;46.83;30.55;;;;;;;8.59;74.16;101213.53;3581781;40;21705;-65
2022/03/29 03:47:48;;;;;;;46.15;30.85;;;;;;;8.58;74.07;101206.41;3585334;40;20275;-66
2022/03/29 03:50:14;;;;;;;47.45;31.50;;;;;;;8.56;74.06;101202.97;3584476;40;20060;-64
2022/03/29 03:52:40;;;;;;;47.67;31.83;;;;;;;8.51;73.92;101202.28;3582940;40;20048;-65
2022/03/29 03:55:08;;;;;;;49.00;31.35;;;;;;;8.57;74.67;101218.09;3581055;40;20133;-64
2022/03/29 03:57:33;;;;;;;46.83;31.52;;;;;;;8.54;74.39;101218.22;3580638;40;20055;-65
2022/03/29 04:00:01;;;;;;;50.78;33.15;;;;;;;8.46;74.12;101211.47;3589558;40;20072;-65
2022/03/29 04:02:27;;;;;;;49.63;34.00;;;;;;;8.38;74.79;101203.81;3584603;40;20044;-65
2022/03/29 04:04:52;;;;;;;54.08;34.63;;;;;;;8.36;75.27;101208.34;3584759;40;20096;-65
2022/03/29 04:07:18;;;;;;;48.97;33.55;;;;;;;8.29;75.51;101205.06;3581510;40;20395;-65
2022/03/29 04:09:44;;;;;;;52.22;34.08;;;;;;;8.24;75.63;101204.41;3583567;40;20067;-65
2022/03/29 04:12:10;;;;;;;48.95;34.10;;;;;;;8.20;75.68;101201.94;3585527;40;20056;-65
2022/03/29 04:14:39;;;;;;;49.83;34.05;;;;;;;8.17;75.20;101191.38;3584707;40;20400;-64
2022/03/29 04:17:05;;;;;;;51.03;32.45;;;;;;;8.20;75.76;101201.94;3580806;40;20667;-65
2022/03/29 04:19:31;;;;;;;50.08;34.20;;;;;;;8.18;75.79;101190.44;3585110;40;20065;-64
2022/03/29 04:21:56;;;;;;;53.83;36.85;;;;;;;8.13;75.62;101186.16;3584473;40;20044;-64
2022/03/29 04:24:22;;;;;;;58.33;34.92;;;;;;;8.17;75.24;101192.25;3585464;40;20048;-65
2022/03/29 04:26:48;;;;;;;55.67;35.95;;;;;;;8.12;75.69;101179.09;3584385;40;20091;-65
2022/03/29 04:29:14;;;;;;;50.17;33.90;;;;;;;8.10;75.55;101174.72;3587276;40;20055;-64
2022/03/29 04:31:40;;;;;;;53.33;35.17;;;;;;;8.06;75.52;101171.31;3586531;40;20086;-64
2022/03/29 04:34:05;;;;;;;52.28;36.15;;;;;;;8.02;75.28;101176.88;3586961;40;20089;-64
2022/03/29 04:36:31;;;;;;;54.70;36.63;;;;;;;7.83;76.23;101147.41;3585745;40;20044;-64
2022/03/29 04:39:00;;;;;;;59.97;37.10;;;;;;;7.94;76.40;101163.84;3587251;40;20077;-64
2022/03/29 04:41:26;;;;;;;54.88;36.95;;;;;;;7.93;76.88;101171.94;3584885;40;20044;-65
2022/03/29 04:43:52;;;;;;;52.10;36.75;;;;;;;7.80;76.69;101142.19;3582258;40;20311;-64
2022/03/29 04:46:17;;;;;;;56.40;37.20;;;;;;;7.88;76.90;101165.00;3584144;40;20055;-65
2022/03/29 04:48:44;;;;;;;56.58;38.42;;;;;;;7.82;76.79;101162.59;3584598;40;20048;-64
2022/03/29 04:51:11;;;;;;;55.88;38.92;;;;;;;7.83;77.57;101166.13;3583129;40;20053;-64
2022/03/29 04:53:37;;;;;;;58.88;39.05;;;;;;;7.83;77.16;101168.81;3581293;40;20051;-64
2022/03/29 04:56:04;;;;;;;56.50;38.10;;;;;;;7.75;76.91;101146.91;3583707;40;20500;-64
2022/03/29 04:58:30;;;;;;;57.08;39.83;;;;;;;7.81;76.44;101162.69;3579013;40;20391;-64
2022/03/29 05:00:58;;;;;;;57.03;38.45;;;;;;;7.83;76.95;101156.31;3584505;40;20058;-65
2022/03/29 05:03:23;;;;;;;58.40;39.67;;;;;;;7.71;76.83;101135.47;3582525;40;20056;-64
2022/03/29 05:05:49;;;;;;;56.78;37.85;;;;;;;7.86;76.90;101161.50;3602384;23;20059;-64
2022/03/29 05:08:14;;;;;;;59.13;40.33;;;;;;;7.89;76.67;101161.38;3592827;40;20051;-64
2022/03/29 05:10:40;;;;;;;59.60;41.05;;;;;;;7.91;76.86;101155.97;3592649;39;20048;-64
2022/03/29 05:13:06;;;;;;;55.88;39.42;;;;;;;7.93;76.67;101154.09;3593909;39;20063;-64
2022/03/29 05:15:32;;;;;;;58.13;40.03;;;;;;;7.94;76.68;101154.97;3591739;39;20048;-64
2022/03/29 05:17:57;;;;;;;57.28;39.35;;;;;;;7.93;76.94;101146.06;3581494;40;20390;-63
2022/03/29 05:20:24;;;;;;;60.15;39.22;;;;;;;7.96;76.06;101155.75;3578757;40;20059;-63
2022/03/29 05:22:55;;;;;;;62.00;40.75;;;;;;;7.94;76.77;101150.47;3581231;40;20048;-63
2022/03/29 05:25:23;;;;;;;56.70;40.35;;;;;;;7.90;76.21;101140.84;3579140;40;20082;-63
2022/03/29 05:27:51;;;;;;;57.90;40.47;;;;;;;7.91;76.51;101143.44;3580334;40;20056;-63
2022/03/29 05:30:18;;;;;;;60.22;41.50;;;;;;;7.77;76.47;101128.94;3574477;40;20049;-63
2022/03/29 05:32:43;;;;;;;64.30;41.90;;;;;;;7.89;76.41;101156.00;3581415;40;20361;-63
2022/03/29 05:35:11;;;;;;;62.47;42.88;;;;;;;7.70;76.43;101122.13;3578790;40;20060;-63
2022/03/29 05:37:40;;;;;;;63.75;42.05;;;;;;;7.84;76.69;101138.44;3581274;40;20052;-63
2022/03/29 05:40:09;;;;;;;60.40;40.05;;;;;;;7.81;75.92;101151.97;3577775;40;20044;-63
2022/03/29 05:42:43;;;;;;;60.50;40.90;;;;;;;7.73;76.95;101143.41;3579122;40;20052;-63
2022/03/29 05:45:11;;;;;;;60.10;40.88;;;;;;;7.79;76.92;101153.84;3580249;40;20413;-61
2022/03/29 05:50:22;;;;;;;63.42;42.70;;;;;;;7.79;76.65;101153.84;3575678;40;20142;-63
2022/03/29 05:52:48;;;;;;;62.92;42.15;;;;;;;7.77;77.12;101147.66;3579805;40;20113;-63
2022/03/29 05:55:13;;;;;;;66.88;43.83;;;;;;;7.72;77.03;101155.06;3581770;40;20103;-62
2022/03/29 05:57:39;;;;;;;69.80;43.83;;;;;;;7.71;77.46;101145.28;3579774;40;20101;-63
2022/03/29 06:00:10;;;;;;;69.90;44.40;;;;;;;7.70;77.49;101154.25;3579682;40;20053;-63
2022/03/29 06:02:39;;;;;;;70.65;45.88;;;;;;;7.75;77.83;101149.56;3578129;40;20045;-63
2022/03/29 06:05:07;;;;;;;77.25;45.05;;;;;;;7.78;78.04;101149.44;3577056;40;20057;-63
2022/03/29 06:07:33;;;;;;;77.10;46.20;;;;;;;7.75;77.88;101157.59;3579284;40;20052;-63
2022/03/29 06:09:59;;;;;;;82.97;47.17;;;;;;;7.68;78.28;101132.94;3575831;40;20074;-62
2022/03/29 06:12:24;;;;;;;73.88;45.05;;;;;;;7.71;78.36;101150.63;3581495;40;20056;-62
2022/03/29 06:14:51;;;;;;;83.63;47.25;;;;;;;7.71;78.58;101147.94;3577568;40;20049;-64
2022/03/29 06:17:17;;;;;;;79.80;46.90;;;;;;;7.71;78.22;101147.94;3582005;40;20114;-62
2022/03/29 06:19:44;;;;;;;79.07;47.33;;;;;;;7.79;78.56;101154.69;3579171;40;20044;-62
2022/03/29 06:22:10;;;;;;;78.10;46.05;;;;;;;7.81;78.94;101149.28;3579934;40;20114;-64
2022/03/29 06:24:36;;;;;;;81.60;48.00;;;;;;;7.92;78.56;101149.66;3578939;40;20052;-62
2022/03/29 06:27:01;;;;;;;79.43;48.05;;;;;;;7.96;77.90;101148.59;3582527;40;20091;-63
2022/03/29 06:29:27;;;;;;;81.72;46.90;;;;;;;7.94;77.85;101150.47;3582716;40;20415;-63
2022/03/29 06:31:53;;;;;;;81.03;48.03;;;;;;;7.86;78.44;101123.16;3579833;40;20057;-62
2022/03/29 06:34:20;;;;;;;79.50;47.03;;;;;;;8.03;78.12;101135.81;3581135;40;20113;-63
2022/03/29 06:36:46;;;;;;;84.35;48.20;;;;;;;7.79;78.11;101105.66;3580198;40;20414;-62
2022/03/29 06:39:13;;;;;;;85.43;47.78;;;;;;;8.03;77.95;101130.44;3579909;40;20056;-62
2022/03/29 06:41:41;;;;;;;81.95;48.05;;;;;;;8.03;77.47;101136.66;3582675;40;20338;-61
2022/03/29 06:44:09;;;;;;;89.07;49.97;;;;;;;8.01;77.98;101148.38;3580773;40;20131;-63
2022/03/29 06:46:37;;;;;;;89.30;47.90;;;;;;;7.99;78.16;101156.50;3580290;40;20092;-63
2022/03/29 06:49:03;;;;;;;84.72;48.20;;;;;;;8.01;78.07;101154.59;3580006;40;20067;-63
2022/03/29 06:51:35;;;;;;;86.55;48.25;;;;;;;8.04;78.00;101149.09;3580379;40;20055;-63
2022/03/29 06:54:02;;;;;;;88.25;47.00;;;;;;;8.05;78.24;101150.81;3580042;40;20052;-63
2022/03/29 06:56:28;;;;;;;96.13;49.85;;;;;;;8.06;78.52;101143.69;3578143;40;20162;-63
2022/03/29 06:58:54;;;;;;;87.22;48.25;;;;;;;8.09;78.27;101136.38;3580347;40;20060;-63
2022/03/29 07:01:21;;;;;;;88.47;48.72;;;;;;;8.14;78.48;101128.13;3580849;40;20389;-63
2022/03/29 07:03:47;;;;;;;115.65;61.85;;;;;;;8.24;77.99;101133.91;3581159;40;20138;-63
2022/03/29 07:06:13;;;;;;;92.40;48.63;;;;;;;8.18;77.55;101112.78;3575288;40;20060;-63
2022/03/29 07:11:16;;;;;;;89.70;48.97;;;;;;;8.30;77.36;101126.44;3581052;40;20085;-63
2022/03/29 07:11:24;;;;;;;93.65;48.90;;;;;;;8.37;77.38;101124.34;3581503;40;20082;-63
2022/03/29 07:13:50;;;;;;;90.43;49.97;;;;;;;8.39;77.57;101119.81;3577848;40;20063;-63
2022/03/29 07:16:16;;;;;;;89.53;47.40;;;;;;;8.40;77.33;101123.38;3574154;40;20351;-63
2022/03/29 07:18:42;;;;;;;92.35;49.88;;;;;;;8.42;77.22;101118.81;3578449;40;20164;-63
2022/03/29 07:21:12;;;;;;;90.55;49.13;;;;;;;8.37;76.98;101125.25;3575893;40;20059;-63
2022/03/29 07:23:40;;;;;;;92.43;50.63;;;;;;;8.26;77.46;101127.53;3579181;40;20044;-63
2022/03/29 07:26:05;;;;;;;95.00;49.80;;;;;;;8.29;77.57;101135.44;3580572;40;20130;-63
2022/03/29 07:28:32;;;;;;;90.75;48.50;;;;;;;8.22;77.63;101120.59;3578794;40;20045;-63
2022/03/29 07:30:57;;;;;;;86.55;49.50;;;;;;;8.34;77.64;101141.47;3579358;40;20056;-63
2022/03/29 07:33:23;;;;;;;89.38;46.63;;;;;;;8.32;77.01;101142.47;3578450;40;20094;-63
2022/03/29 07:35:49;;;;;;;92.80;48.85;;;;;;;8.33;76.88;101136.16;3580687;40;20051;-63
2022/03/29 07:38:15;;;;;;;97.40;47.42;;;;;;;8.31;77.22;101135.38;3579001;40;20048;-62
2022/03/29 07:40:43;;;;;;;93.35;47.65;;;;;;;8.32;76.87;101145.16;3578444;40;20064;-63
2022/03/29 07:43:13;;;;;;;93.53;47.63;;;;;;;8.34;77.37;101141.47;3580728;40;20092;-64
2022/03/29 07:45:39;;;;;;;93.55;47.13;;;;;;;8.40;76.76;101145.66;3581562;40;20056;-63
2022/03/29 07:48:05;;;;;;;98.80;49.67;;;;;;;8.44;76.91;101157.13;3581112;40;20041;-63
2022/03/29 07:50:34;;;;;;;98.97;50.50;;;;;;;8.45;76.53;101158.84;3579976;40;20081;-63
2022/03/29 07:53:02;;;;;;;95.60;51.03;;;;;;;8.51;76.27;101163.91;3580231;40;20053;-63
2022/03/29 07:55:28;;;;;;;94.68;48.38;;;;;;;8.58;76.91;101160.88;3581766;40;20058;-63
2022/03/29 07:57:54;;;;;;;90.28;47.80;;;;;;;8.60;76.49;101169.72;3578654;40;20338;-63
2022/03/29 08:00:32;;;;;;;96.68;50.17;;;;;;;8.59;76.88;101156.38;3579651;40;20052;-63
2022/03/29 08:03:01;;;;;;;98.47;49.92;;;;;;;8.63;76.78;101159.75;3581847;40;20060;-63
2022/03/29 08:05:29;;;;;;;86.68;47.53;;;;;;;8.64;76.88;101158.84;3581341;40;20121;-63
2022/03/29 08:07:57;;;;;;;90.65;47.63;;;;;;;8.66;76.55;101163.19;3578857;40;20060;-63
2022/03/29 08:10:23;;;;;;;95.30;49.00;;;;;;;8.60;76.96;101159.00;3581239;40;20080;-63
2022/03/29 08:12:49;;;;;;;93.38;48.45;;;;;;;8.56;76.75;101157.41;3580480;40;20057;-63
2022/03/29 08:15:15;;;;;;;99.15;50.88;;;;;;;8.59;77.04;101154.59;3582109;40;20054;-63
2022/03/29 08:17:41;;;;;;;95.15;48.78;;;;;;;8.63;77.42;101149.03;3581219;40;20081;-62
2022/03/29 08:20:08;;;;;;;89.25;46.30;;;;;;;8.68;77.35;101147.03;3580812;40;20049;-63
2022/03/29 08:22:34;;;;;;;91.55;47.03;;;;;;;8.74;76.44;101138.69;3580441;40;20550;-64
2022/03/29 08:25:02;;;;;;;93.13;47.72;;;;;;;8.68;76.43;101133.63;3581564;40;20462;-63
2022/03/29 08:27:28;;;;;;;94.55;47.35;;;;;;;8.74;76.45;101141.38;3582408;40;20060;-63
2022/03/29 08:29:54;;;;;;;93.72;48.35;;;;;;;8.77;76.45;101143.88;3581335;40;20379;-63
2022/03/29 08:32:20;;;;;;;97.95;48.95;;;;;;;8.80;76.37;101133.03;3581451;40;20318;-63
2022/03/29 08:34:46;;;;;;;98.88;49.25;;;;;;;8.84;76.32;101137.28;3582150;40;20076;-63
2022/03/29 08:37:12;;;;;;;101.97;49.67;;;;;;;8.83;75.66;101139.09;3582913;40;20130;-63
2022/03/29 08:39:37;;;;;;;87.65;45.30;;;;;;;8.89;75.76;101145.97;3580422;40;20411;-63
2022/03/29 08:42:13;;;;;;;91.40;46.03;;;;;;;8.90;75.39;101136.97;3579568;40;20059;-64
2022/03/29 08:44:40;;;;;;;93.43;46.47;;;;;;;8.99;76.09;101139.19;3581084;40;20048;-64
2022/03/29 08:47:08;;;;;;;91.53;46.95;;;;;;;9.09;75.72;101141.41;3580790;40;20129;-63
2022/03/29 08:49:35;;;;;;;88.20;46.30;;;;;;;9.10;75.14;101146.69;3581119;40;20063;-63
2022/03/29 08:52:03;;;;;;;95.88;47.30;;;;;;;9.07;75.08;101153.09;3580862;40;20450;-64
2022/03/29 08:54:28;;;;;;;85.40;46.83;;;;;;;9.10;75.16;101151.19;3582069;40;20079;-64
2022/03/29 08:56:54;;;;;;;91.53;49.20;;;;;;;9.05;75.31;101149.63;3580655;40;20052;-63
2022/03/29 08:59:20;;;;;;;93.68;47.70;;;;;;;9.09;75.58;101142.28;3582026;40;20457;-63
2022/03/29 09:01:47;;;;;;;85.95;46.33;;;;;;;9.13;75.47;101140.31;3579206;40;20301;-63
2022/03/29 09:04:20;;;;;;;103.38;49.00;;;;;;;9.18;75.08;101143.63;3581439;40;20091;-63
2022/03/29 09:07:00;;;;;;;92.47;47.22;;;;;;;9.19;74.76;101151.59;3580301;40;20157;-63
2022/03/29 09:09:29;;;;;;;87.90;46.22;;;;;;;9.27;75.00;101143.16;3579971;40;20074;-63
2022/03/29 09:11:58;;;;;;;93.90;47.45;;;;;;;9.33;73.94;101136.63;3581133;40;20092;-63
2022/03/29 09:14:28;;;;;;;99.75;50.10;;;;;;;9.30;74.67;101132.28;3580316;40;20325;-63
2022/03/29 09:16:55;;;;;;;97.22;49.42;;;;;;;9.32;74.83;101125.00;3580998;40;20048;-63
2022/03/29 09:19:24;;;;;;;106.80;55.53;;;;;;;9.43;74.47;101132.50;3579246;40;20397;-64
2022/03/29 09:21:51;;;;;;;100.38;51.78;;;;;;;9.46;73.73;101132.34;3579473;40;20060;-63
2022/03/29 09:24:18;;;;;;;104.88;51.33;;;;;;;9.40;73.57;101112.06;3581652;40;20396;-63
2022/03/29 09:26:54;;;;;;;100.03;51.25;;;;;;;9.52;73.53;101126.66;3581760;40;20061;-63
2022/03/29 09:29:22;;;;;;;102.80;51.67;;;;;;;9.51;73.84;101131.16;3579969;40;20056;-63
2022/03/29 09:32:08;;;;;;;106.18;52.47;;;;;;;9.49;74.29;101130.38;3580274;40;20044;-63
2022/03/29 09:34:35;;;;;;;93.80;47.90;;;;;;;9.45;73.83;101120.75;3578528;40;20048;-63
2022/03/29 09:37:04;;;;;;;101.22;50.67;;;;;;;9.50;73.90;101131.22;3578935;40;20123;-63
2022/03/29 09:39:48;;;;;;;100.60;50.10;;;;;;;9.45;73.53;101119.88;3576089;40;20637;-63
2022/03/29 09:42:17;;;;;;;109.63;51.85;;;;;;;9.51;73.92;101115.06;3579073;40;20112;-63
2022/03/29 09:44:54;;;;;;;98.20;50.50;;;;;;;9.66;73.73;101123.25;3577721;40;20406;-63
2022/03/29 09:47:22;;;;;;;103.78;50.35;;;;;;;9.74;73.79;101110.28;3579240;40;20063;-63
2022/03/29 09:49:48;;;;;;;104.32;51.45;;;;;;;9.80;72.81;101109.97;3578637;40;20064;-63
2022/03/29 09:52:21;;;;;;;112.85;54.33;;;;;;;9.80;73.65;101104.59;3577853;40;20052;-63
2022/03/29 09:55:15;;;;;;;111.05;52.28;;;;;;;9.87;72.73;101106.00;3579975;40;20087;-64
2022/03/29 09:57:50;;;;;;;118.50;52.97;;;;;;;9.88;72.54;101096.09;3580293;40;20056;-63
2022/03/29 10:00:44;;;;;;;127.15;55.80;;;;;;;9.89;71.84;101096.00;3577714;40;20137;-63
2022/03/29 10:03:11;;;;;;;;;;;;;;;9.88;71.87;101102.34;3577612;40;20118;-63
2022/03/29 10:05:40;;;;;;;126.43;54.92;;;;;;;9.89;71.82;101098.69;3580010;40;20009;-63
2022/03/29 10:10:59;;;;;;;114.70;54.17;;;;;;;10.00;71.33;101074.81;3579126;40;20063;-63
2022/03/29 10:13:24;;;;;;;114.95;53.95;;;;;;;10.07;71.53;101080.72;3578641;40;20060;-62
2022/03/29 10:15:52;;;;;;;112.50;53.75;;;;;;;10.19;71.28;101085.41;3578957;40;20053;-62
2022/03/29 10:18:19;;;;;;;104.93;52.28;;;;;;;10.28;70.83;101078.69;3572513;40;20175;-63
2022/03/29 10:20:46;;;;;;;98.15;50.70;;;;;;;10.27;71.15;101076.94;3580319;40;20057;-63
2022/03/29 10:23:18;;;;;;;91.70;48.55;;;;;;;10.21;70.58;101067.38;3578862;40;20508;-62
2022/03/29 10:25:44;;;;;;;83.13;46.72;;;;;;;10.07;71.45;101063.72;3580822;40;20060;-63
2022/03/29 10:28:11;;;;;;;82.78;45.47;;;;;;;10.20;71.33;101080.88;3581027;40;20120;-62
2022/03/29 10:30:40;;;;;;;85.18;47.70;;;;;;;10.18;70.62;101081.00;3579342;40;20083;-62
2022/03/29 10:33:31;;;;;;;76.95;44.80;;;;;;;10.11;71.00;101076.88;3580896;40;20122;-62
2022/03/29 10:36:14;;;;;;;89.72;51.67;;;;;;;10.17;71.74;101075.69;3578034;40;20063;-63
2022/03/29 10:38:48;;;;;;;78.60;45.60;;;;;;;10.21;71.13;101066.50;3578747;40;20049;-63
2022/03/29 10:41:26;;;;;;;73.45;42.97;;;;;;;10.23;70.98;101064.59;3579466;40;20741;-63
2022/03/29 10:43:54;;;;;;;71.30;44.22;;;;;;;10.27;70.49;101065.31;3577860;40;20060;-63
2022/03/29 10:46:46;;;;;;;70.75;42.25;;;;;;;10.40;70.55;101063.66;3581639;40;20146;-63
2022/03/29 10:49:23;;;;;;;69.63;41.08;;;;;;;10.53;70.29;101063.81;3579824;40;20056;-63
2022/03/29 10:52:04;;;;;;;63.50;40.03;;;;;;;10.64;69.92;101064.06;3577416;40;20060;-63
2022/03/29 10:54:41;;;;;;;64.63;39.70;;;;;;;10.72;69.12;101051.06;3582874;40;20048;-63
2022/03/29 10:57:31;;;;;;;65.82;40.80;;;;;;;10.84;69.39;101053.00;3579309;40;20054;-62
2022/03/29 11:00:10;;;;;;;62.08;40.35;;;;;;;10.95;67.91;101051.53;3577514;40;20043;-63
2022/03/29 11:02:37;;;;;;;61.25;40.08;;;;;;;10.97;68.48;101038.81;3577725;40;20051;-62
2022/03/29 11:05:12;;;;;;;78.32;49.17;;;;;;;11.15;68.45;101048.47;3577141;40;20048;-63
2022/03/29 11:08:11;;;;;;;59.70;38.50;;;;;;;11.28;67.21;101033.31;3601103;23;20414;-65
2022/03/29 11:10:44;;;;;;;59.50;38.25;;;;;;;11.37;66.83;101037.28;3585190;40;20121;-65
2022/03/29 11:13:37;;;;;;;60.42;39.72;;;;;;;11.48;66.42;101020.44;3588461;40;20068;-64
2022/03/29 11:16:25;;;;;;;53.85;36.88;;;;;;;11.54;66.07;101025.44;3586952;40;20406;-65
2022/03/29 11:18:52;;;;;;;55.90;36.90;;;;;;;11.49;66.97;101019.50;3585444;40;20045;-64
2022/03/29 11:21:36;;;;;;;54.40;36.33;;;;;;;11.50;66.03;101035.53;3585813;40;20059;-65
2022/03/29 11:24:06;;;;;;;50.70;35.35;;;;;;;11.61;66.17;101029.50;3587370;39;20093;-66
2022/03/29 11:26:35;;;;;;;51.63;35.05;;;;;;;11.75;65.15;101013.31;3588932;40;20051;-65
2022/03/29 11:29:05;;;;;;;50.42;35.70;;;;;;;12.05;64.72;101026.69;3585147;40;20295;-66